M I D A S
Marine Information and Data Acquisition System
Tripno 724 of the Zeeleeuw from 2004-05-27 06:15:34 to 2004-05-27 13:42:19
Back to CruiseResearch ActivitiesStationsMapUnderway DataData graphs

EquipmentUnitsComment
TimeDGPSUTC
LatitudeDGPSDM.mWGS84
LongitudeDGPSDM.mWGS84
HeadingGyrodeg 
SOGDGPSknotsSpeed over ground
COGDGPSdegCourse over ground
DepthEcho soundermeters200 kHz
Missing or incorrect values are displayed as -999
Navigation data collected by the RV Zeeleeuw from 2004-05-27 06:15:34 to 2004-05-27 13:42:19
Time Latitude Longitude Heading SOG COG Depth
2004-05-27 06:16:38 51°13.598 2°56.095 124   282 8.8
2004-05-27 06:17:37 51°13.598 2°56.095 125.3   168 8.8
2004-05-27 06:18:38 51°13.597 2°56.095 125.4   291 8.9
2004-05-27 06:19:37 51°13.597 2°56.096 125.8   240 8.9
2004-05-27 06:20:38 51°13.597 2°56.091 112.9 1.3 287 9.1
2004-05-27 06:21:40 51°13.622 2°55.98 114.5 5.9 289 -999
2004-05-27 06:22:38 51°13.671 2°55.838 126.2 5.8 303 -999
2004-05-27 06:23:38 51°13.692 2°55.736 98.8 2.3 280 15.4
2004-05-27 06:24:39 51°13.703 2°55.732 61.2 1.6 39 15
2004-05-27 06:25:38 51°13.734 2°55.754 10.2 1.1 17 12
2004-05-27 06:26:38 51°13.719 2°55.761 352.8 0.7 348 -999
2004-05-27 06:27:37 51°13.791 2°55.67 323.6 8.5 320 11.6
2004-05-27 06:28:37 51°13.91 2°55.547 341.2 8 336 11
2004-05-27 06:29:38 51°14.022 2°55.493 352.7 6.3 347 12.5
2004-05-27 06:30:38 51°14.144 2°55.417 342.1 10.9 334 13.1
2004-05-27 06:31:38 51°14.296 2°55.201 316.3 12.9 309 13.2
2004-05-27 06:32:38 51°14.449 2°54.945 328 13.5 327 12.3
2004-05-27 06:33:38 51°14.631 2°54.739 325.4 13.3 322 11.6
2004-05-27 06:34:38 51°14.811 2°54.528 326.1 13.5 324 11.4
2004-05-27 06:35:38 51°14.994 2°54.32 325.2 13.4 322 10.4
2004-05-27 06:36:38 51°15.173 2°54.102 326.6 13.8 323 10.9
2004-05-27 06:37:38 51°15.371 2°53.922 338.5 13.7 336 11.5
2004-05-27 06:38:38 51°15.58 2°53.769 337.3 13.7 335 12.4
2004-05-27 06:39:38 51°15.788 2°53.612 338.1 13.9 335 13.1
2004-05-27 06:40:38 51°15.997 2°53.454 337.5 14 334 13.5
2004-05-27 06:41:38 51°16.21 2°53.303 344.5 14 344 13.8
2004-05-27 06:42:38 51°16.438 2°53.226 351.4 14.1 348 13.8
2004-05-27 06:43:38 51°16.669 2°53.157 354.5 14.1 352 13.3
2004-05-27 06:44:36 51°16.893 2°53.11 355 13.9 352 10.1
2004-05-27 06:45:38 51°17.138 2°53.092 7.6 14.6 8 10.8
2004-05-27 06:46:38 51°17.362 2°53.242 32.2 14.8 27 10.9
2004-05-27 06:47:38 51°17.584 2°53.411 30.6 14.8 25 11.2
2004-05-27 06:48:38 51°17.806 2°53.576 29.9 14.8 24 11.5
2004-05-27 06:49:36 51°18.016 2°53.745 33 14.8 27 11.7
2004-05-27 06:50:38 51°18.228 2°53.967 43.9 14.7 40 11.9
2004-05-27 06:51:38 51°18.408 2°54.231 48.4 14.6 42 12.1
2004-05-27 06:52:38 51°18.588 2°54.494 49 14.7 42 12.3
2004-05-27 06:53:38 51°18.772 2°54.756 47.7 14.8 42 12.7
2004-05-27 06:54:38 51°18.954 2°55.018 47.9 14.6 42 12.8
2004-05-27 06:55:38 51°19.138 2°55.276 47.7 14.8 42 13
2004-05-27 06:56:36 51°19.313 2°55.525 47.2 14.6 41 13.1
2004-05-27 06:57:38 51°19.493 2°55.803 55 14.5 49 13
2004-05-27 06:58:38 51°19.644 2°56.105 56.9 14.6 51 13.2
2004-05-27 06:59:38 51°19.797 2°56.406 56.6 14.6 51 13.2
2004-05-27 07:00:38 51°19.951 2°56.706 56.6 14.6 51 13.4
2004-05-27 07:01:38 51°20.106 2°57.005 56.5 14.7 50 13.4
2004-05-27 07:02:38 51°20.26 2°57.305 56.8 14.6 50 13.3
2004-05-27 07:03:38 51°20.415 2°57.607 55.9 14.7 50 13.4
2004-05-27 07:04:38 51°20.57 2°57.909 56.4 14.8 51 13.2
2004-05-27 07:05:38 51°20.724 2°58.209 56.6 14.4 51 13.4
2004-05-27 07:06:38 51°20.877 2°58.509 56.3 14.6 51 13.3
2004-05-27 07:07:38 51°21.025 2°58.818 60.9 14.6 55 13.2
2004-05-27 07:08:38 51°21.145 2°59.153 68.2 14.6 62 12.9
2004-05-27 07:09:38 51°21.293 2°59.463 54.1 14.8 48 12.9
2004-05-27 07:10:38 51°21.457 2°59.755 53.6 14.8 49 13
2004-05-27 07:11:38 51°21.62 3°0.05 53.9 14.8 49 12.8
2004-05-27 07:12:38 51°21.782 3°0.346 54.2 14.7 49 12.7
2004-05-27 07:13:38 51°21.943 3°0.641 54.1 14.7 48 12.6
2004-05-27 07:14:38 51°22.104 3°0.936 54.2 14.7 48 12.3
2004-05-27 07:15:37 51°22.26 3°1.228 54.4 14.7 49 12.7
2004-05-27 07:16:37 51°22.419 3°1.523 54.8 14.6 50 11.5
2004-05-27 07:17:38 51°22.581 3°1.821 54.2 14.7 49 13
2004-05-27 07:18:38 51°22.743 3°2.105 48.3 14.1 39 11
2004-05-27 07:19:38 51°22.966 3°2.169 359.3 14.1 356 12.7
2004-05-27 07:20:38 51°23.201 3°2.178 8.1 14.3 4 13.1
2004-05-27 07:21:38 51°23.437 3°2.207 8.3 14.2 5 14.5
2004-05-27 07:22:37 51°23.669 3°2.236 8.2 14.1 4 15.5
2004-05-27 07:23:38 51°23.908 3°2.268 8.1 14.3 5 16.8
2004-05-27 07:24:37 51°24.141 3°2.301 8.2 14.4 5 17.7
2004-05-27 07:25:39 51°24.385 3°2.337 8.3 14.3 5 19.6
2004-05-27 07:26:38 51°24.616 3°2.367 8.6 14.2 5 20.1
2004-05-27 07:27:38 51°24.844 3°2.459 30.2 14.2 29 18.1
2004-05-27 07:28:38 51°25.018 3°2.72 55.6 14.5 49 15.7
2004-05-27 07:29:38 51°25.169 3°3.024 59.3 14.7 54 15
2004-05-27 07:30:38 51°25.262 3°3.379 76.9 14.3 70 14.6
2004-05-27 07:31:38 51°25.342 3°3.74 75.1 14.2 70 14
2004-05-27 07:32:38 51°25.426 3°4.099 75.1 14.4 69 13.2
2004-05-27 07:33:38 51°25.514 3°4.457 75.1 14.5 69 12.9
2004-05-27 07:34:38 51°25.605 3°4.813 73.6 14.5 67 12.6
2004-05-27 07:35:38 51°25.699 3°5.17 73.4 14.6 67 12.4
2004-05-27 07:36:38 51°25.794 3°5.524 73.5 14.3 67 12.2
2004-05-27 07:37:38 51°25.886 3°5.878 73.3 14.4 69 11.6
2004-05-27 07:38:38 51°25.98 3°6.233 73.3 14.4 67 11.5
2004-05-27 07:39:38 51°26.076 3°6.587 72.6 14.6 66 11.8
2004-05-27 07:40:38 51°26.153 3°6.95 80.4 14.5 72 11.6
2004-05-27 07:41:38 51°26.225 3°7.314 78.9 14.2 71 9.9
2004-05-27 07:42:38 51°26.296 3°7.679 80.3 14.6 73 10.7
2004-05-27 07:43:38 51°26.362 3°7.988 74.9 9.1 67 11.6
2004-05-27 07:44:38 51°26.419 3°8.127 65 4.5 56 12.1
2004-05-27 07:45:38 51°26.441 3°8.208 96 2.6 77 11.9
2004-05-27 07:46:38 51°26.449 3°8.269 95.1 2.3 75 12.1
2004-05-27 07:47:42 51°26.464 3°8.324 84.5 2 66 12
2004-05-27 07:48:42 51°26.487 3°8.4 73.5 3.9 64 12.1
2004-05-27 07:49:42 51°26.518 3°8.486 73.2 3.5 61 12.4
2004-05-27 07:50:41 51°26.542 3°8.565 78.2 3.2 67 12.5
2004-05-27 07:51:42 51°26.563 3°8.643 81.6 3.1 67 12.4
2004-05-27 07:52:43 51°26.58 3°8.72 87 3 72 12.6
2004-05-27 07:53:42 51°26.595 3°8.795 87 3.1 72 12.4
2004-05-27 07:54:42 51°26.612 3°8.873 82.9 3.1 73 12.5
2004-05-27 07:55:42 51°26.631 3°8.951 81 3.2 69 12.2
2004-05-27 07:56:42 51°26.654 3°9.027 76.2 3.2 65 12
2004-05-27 07:57:42 51°26.679 3°9.102 73.6 3.2 63 12.1
2004-05-27 07:58:42 51°26.706 3°9.174 72.1 3.2 57 11.8
2004-05-27 07:59:42 51°26.733 3°9.246 75.2 3.1 60 11.7
2004-05-27 08:00:42 51°26.755 3°9.321 82.7 3.1 71 11.8
2004-05-27 08:01:42 51°26.772 3°9.398 87 3 71 11.5
2004-05-27 08:02:41 51°26.788 3°9.473 85.7 3 72 11.5
2004-05-27 08:03:42 51°26.805 3°9.549 85.1 3 68 11.7
2004-05-27 08:04:42 51°26.823 3°9.624 83.8 3 67 11.6
2004-05-27 08:05:41 51°26.843 3°9.698 81.9 3 67 11.6
2004-05-27 08:06:42 51°26.866 3°9.772 79.4 3.1 63 11.4
2004-05-27 08:07:41 51°26.889 3°9.844 78.2 3.1 66 11.4
2004-05-27 08:08:42 51°26.914 3°9.918 78.2 3.1 59 11.4
2004-05-27 08:09:42 51°26.938 3°9.989 77.7 3.1 57 11.4
2004-05-27 08:10:42 51°26.961 3°10.06 78.5 3 63 11.4
2004-05-27 08:11:42 51°26.985 3°10.13 78.3 3.1 58 11.4
2004-05-27 08:12:42 51°27.008 3°10.2 77.7 3 63 11.5
2004-05-27 08:13:42 51°27.032 3°10.271 78.1 3.1 55 11.3
2004-05-27 08:14:42 51°27.053 3°10.344 83.5 2.9 71 11.3
2004-05-27 08:15:42 51°27.07 3°10.418 88.9 2.9 69 11.3
2004-05-27 08:16:42 51°27.086 3°10.491 85.9 3 63 11.1
2004-05-27 08:17:42 51°27.105 3°10.562 82.4 2.9 68 11.1
2004-05-27 08:18:42 51°27.123 3°10.634 89.5 2.8 63 10.8
2004-05-27 08:19:42 51°27.131 3°10.689 104.8 1.8 78 10.9
2004-05-27 08:20:42 51°27.133 3°10.729 116.1 1.5 89 10.7
2004-05-27 08:21:42 51°27.1 3°10.768 176.6 2.8 179 10.7
2004-05-27 08:22:42 51°27.055 3°10.728 213.1 3.5 225 10.6
2004-05-27 08:23:42 51°27.023 3°10.658 233.7 3 245 10.8
2004-05-27 08:24:41 51°27.009 3°10.586 245.6 2.9 256 10.8
2004-05-27 08:25:42 51°26.998 3°10.509 247.9 3 261 10.9
2004-05-27 08:26:42 51°26.991 3°10.431 251.5 3.1 265 11
2004-05-27 08:27:42 51°26.985 3°10.349 253.8 3.1 263 11.2
2004-05-27 08:28:42 51°26.978 3°10.268 247.5 3 257 11.3
2004-05-27 08:29:42 51°26.965 3°10.19 240.2 2.9 251 11.2
2004-05-27 08:30:40 51°26.95 3°10.119 240.8 2.9 249 11.2
2004-05-27 08:31:42 51°26.936 3°10.041 242.1 3 254 11.2
2004-05-27 08:32:42 51°26.922 3°9.964 243.9 3.1 258 11.1
2004-05-27 08:33:42 51°26.91 3°9.886 246.9 2.9 251 11.2
2004-05-27 08:34:42 51°26.899 3°9.807 248.8 3 252 11.2
2004-05-27 08:35:41 51°26.891 3°9.727 249.9 3 257 11.3
2004-05-27 08:36:42 51°26.88 3°9.647 245.5 3 254 11.2
2004-05-27 08:37:42 51°26.865 3°9.57 241.2 3 252 11.3
2004-05-27 08:38:42 51°26.847 3°9.495 238.2 3.1 248 11.2
2004-05-27 08:39:40 51°26.827 3°9.425 235.4 3 242 11.3
2004-05-27 08:40:42 51°26.807 3°9.349 238.2 3.2 255 11.3
2004-05-27 08:41:42 51°26.789 3°9.274 240.5 3 250 11.4
2004-05-27 08:42:42 51°26.772 3°9.197 244.5 3 245 11.4
2004-05-27 08:43:42 51°26.759 3°9.119 249.3 3 258 11.5
2004-05-27 08:44:42 51°26.751 3°9.039 253.8 3.1 264 11.7
2004-05-27 08:45:42 51°26.746 3°8.957 258.5 3.1 267 11.7
2004-05-27 08:46:42 51°26.744 3°8.876 257.7 3 266 12
2004-05-27 08:47:42 51°26.738 3°8.797 253 3 265 12
2004-05-27 08:48:42 51°26.727 3°8.722 245 2.9 256 12.2
2004-05-27 08:49:42 51°26.71 3°8.652 240.5 2.8 249 12.1
2004-05-27 08:50:42 51°26.696 3°8.578 246.4 2.9 255 12.2
2004-05-27 08:51:42 51°26.685 3°8.502 253.3 3 264 12.5
2004-05-27 08:52:42 51°26.683 3°8.421 262.9 3.1 272 12.3
2004-05-27 08:53:42 51°26.688 3°8.34 271.4 3.1 282 12.2
2004-05-27 08:54:42 51°26.7 3°8.266 280.1 2.5 290 12.3
2004-05-27 08:55:41 51°26.715 3°8.212 284.3 2.1 299 12.3
2004-05-27 08:56:42 51°26.73 3°8.17 288.9 1.6 296 12.4
2004-05-27 08:57:42 51°26.737 3°8.087 259.7 5 265 12.1
2004-05-27 08:58:42 51°26.668 3°7.857 241.5 12.6 241 11.3
2004-05-27 08:59:42 51°26.557 3°7.555 236.2 13.2 233 10.9
2004-05-27 09:00:42 51°26.405 3°7.3 225.3 13.3 225 11
2004-05-27 09:01:42 51°26.25 3°7.05 225.7 13.1 223 11.2
2004-05-27 09:02:42 51°26.091 3°6.807 225.3 13.3 224 11.1
2004-05-27 09:03:42 51°25.935 3°6.555 225.7 13 223 10.6
2004-05-27 09:04:42 51°25.779 3°6.302 226.9 13.4 226 10.8
2004-05-27 09:05:42 51°25.618 3°6.056 220.4 13.4 222 10.8
2004-05-27 09:06:42 51°25.445 3°5.829 220.8 13.5 221 11.4
2004-05-27 09:07:42 51°25.269 3°5.604 219.1 13.7 219 11.8
2004-05-27 09:08:42 51°25.089 3°5.384 216.4 14.1 216 12.7
2004-05-27 09:09:42 51°24.902 3°5.179 216.7 13.6 215 13.5
2004-05-27 09:10:42 51°24.715 3°4.968 216.7 14.1 214 13.3
2004-05-27 09:11:40 51°24.534 3°4.765 215.5 13.8 214 15
2004-05-27 09:12:52 51°24.307 3°4.515 215.7 13.5 211 18.8
2004-05-27 09:13:52 51°24.119 3°4.308 215.2 13.6 213 16.2
2004-05-27 09:14:52 51°23.931 3°4.102 216 13.7 217 14
2004-05-27 09:15:52 51°23.737 3°3.888 217.2 14.3 216 13.6
2004-05-27 09:16:54 51°23.533 3°3.67 214.4 14.3 212 13.3
2004-05-27 09:17:54 51°23.339 3°3.461 216.3 14.3 214 12.3
2004-05-27 09:18:54 51°23.149 3°3.249 214.3 14.5 214 10.5
2004-05-27 09:19:54 51°22.955 3°3.038 216.5 13.8 214 12.1
2004-05-27 09:20:54 51°22.761 3°2.831 217.4 13.7 214 11.8
2004-05-27 09:21:54 51°22.568 3°2.628 217.1 13.8 215 11.3
2004-05-27 09:23:06 51°22.342 3°2.364 220.5 14 217 11.6
2004-05-27 09:24:07 51°22.157 3°2.131 225.4 13.9 225 11.6
2004-05-27 09:25:08 51°21.988 3°1.863 227.4 14.1 225 11.7
2004-05-27 09:26:06 51°21.827 3°1.61 226.7 13.9 220 11.6
2004-05-27 09:27:08 51°21.66 3°1.33 230.3 14 228 11.6
2004-05-27 09:28:07 51°21.502 3°1.059 229.3 14.3 226 11.5
2004-05-27 09:29:08 51°21.348 3°0.792 232.8 11.1 230 11.5
2004-05-27 09:30:06 51°21.277 3°0.629 243.4 6 243 11.7
2004-05-27 09:31:09 51°21.258 3°0.56 243.9 0.6 235 11.8
2004-05-27 09:32:09 51°21.255 3°0.541 246.8 0.9 261 11.7
2004-05-27 09:33:09 51°21.242 3°0.477 257.8 3.9 255 11.7
2004-05-27 09:34:09 51°21.227 3°0.368 262.7 4.3 256 11.6
2004-05-27 09:35:16 51°21.213 3°0.244 265 4 265 11.7
2004-05-27 09:36:16 51°21.208 3°0.14 274.3 3.8 267 11.6
2004-05-27 09:37:17 51°21.209 3°0.043 274.3 3.5 271 11.7
2004-05-27 09:38:18 51°21.206 2°59.949 269.9 3.4 268 11.8
2004-05-27 09:39:16 51°21.2 2°59.861 264.9 3.4 267 11.6
2004-05-27 09:40:17 51°21.191 2°59.771 261.7 3.3 258 11.7
2004-05-27 09:41:18 51°21.177 2°59.683 256.9 3.3 254 11.8
2004-05-27 09:42:18 51°21.162 2°59.598 254.9 3.4 258 11.7
2004-05-27 09:43:18 51°21.145 2°59.513 251.2 3.4 249 11.6
2004-05-27 09:44:18 51°21.125 2°59.43 247.6 3.4 249 11.7
2004-05-27 09:45:18 51°21.105 2°59.345 251.8 3.4 251 11.6
2004-05-27 09:46:18 51°21.088 2°59.259 253.4 3.4 248 11.7
2004-05-27 09:47:26 51°21.069 2°59.16 253.1 3.4 251 11.6
2004-05-27 09:48:26 51°21.052 2°59.073 251.8 3.5 253 11.8
2004-05-27 09:49:26 51°21.032 2°58.987 250.6 3.4 253 11.7
2004-05-27 09:50:27 51°21.01 2°58.902 249.7 3.4 247 11.8
2004-05-27 09:51:26 51°20.99 2°58.818 249.4 3.5 251 11.8
2004-05-27 09:52:26 51°20.968 2°58.733 248.5 3.5 243 11.8
2004-05-27 09:53:26 51°20.945 2°58.648 248.1 3.5 241 11.8
2004-05-27 09:54:25 51°20.923 2°58.565 247.5 3.5 250 11.9
2004-05-27 09:55:26 51°20.899 2°58.479 246.7 3.5 241 12
2004-05-27 09:56:26 51°20.875 2°58.395 245.9 3.5 241 11.9
2004-05-27 09:57:26 51°20.85 2°58.311 244.2 3.5 242 11.9
2004-05-27 09:58:26 51°20.824 2°58.227 243.8 3.5 241 12
2004-05-27 09:59:30 51°20.796 2°58.138 243.8 3.5 242 12
2004-05-27 10:00:30 51°20.77 2°58.054 243.9 3.6 250 12
2004-05-27 10:01:30 51°20.744 2°57.97 242.9 3.5 242 12
2004-05-27 10:02:31 51°20.717 2°57.887 243.4 3.3 238 12.1
2004-05-27 10:03:30 51°20.691 2°57.807 242.3 3.3 247 12.1
2004-05-27 10:04:28 51°20.666 2°57.741 237.4 2.8 242 12.1
2004-05-27 10:05:30 51°20.641 2°57.68 232.7 2.7 235 12.2
2004-05-27 10:06:30 51°20.61 2°57.612 233.7 3.4 239 12.1
2004-05-27 10:07:30 51°20.579 2°57.537 239.1 3.3 240 12.2
2004-05-27 10:08:30 51°20.554 2°57.464 242 3 238 12.1
2004-05-27 10:09:30 51°20.531 2°57.396 242.1 2.9 243 12.1
2004-05-27 10:10:28 51°20.508 2°57.333 239.5 2.8 241 12.1
2004-05-27 10:11:30 51°20.483 2°57.269 235.1 2.8 239 12.1
2004-05-27 10:12:30 51°20.457 2°57.208 232.9 2.7 233 12.1
2004-05-27 10:13:30 51°20.431 2°57.148 232.2 2.8 234 12.1
2004-05-27 10:14:30 51°20.405 2°57.087 232.6 2.8 234 12
2004-05-27 10:15:30 51°20.378 2°57.027 234.8 2.8 230 12
2004-05-27 10:16:30 51°20.352 2°56.964 236.3 2.8 229 12.1
2004-05-27 10:17:30 51°20.327 2°56.901 237.6 2.9 236 12.1
2004-05-27 10:18:30 51°20.302 2°56.835 237.3 3 246 12.1
2004-05-27 10:19:30 51°20.276 2°56.772 235.8 2.8 238 12
2004-05-27 10:20:30 51°20.251 2°56.709 234.1 2.9 240 11.9
2004-05-27 10:21:30 51°20.223 2°56.647 234.4 2.9 235 12
2004-05-27 10:22:30 51°20.195 2°56.587 235.1 2.9 230 12.1
2004-05-27 10:23:30 51°20.168 2°56.524 235.3 2.8 234 12
2004-05-27 10:24:30 51°20.141 2°56.461 235.6 2.9 231 12.1
2004-05-27 10:25:30 51°20.114 2°56.399 235.3 2.8 231 12.1
2004-05-27 10:26:30 51°20.085 2°56.336 235.1 2.9 235 11.9
2004-05-27 10:27:30 51°20.057 2°56.274 234.7 3 240 12
2004-05-27 10:28:31 51°20.028 2°56.21 235.8 2.9 234 12
2004-05-27 10:29:30 51°19.999 2°56.149 235.6 3 235 12.1
2004-05-27 10:30:30 51°19.971 2°56.086 237.8 2.9 234 12.1
2004-05-27 10:31:30 51°19.943 2°56.022 237.1 2.9 233 12
2004-05-27 10:32:31 51°19.914 2°55.957 235.6 2.9 234 12.1
2004-05-27 10:33:30 51°19.884 2°55.896 235.1 3 236 12
2004-05-27 10:34:30 51°19.855 2°55.833 234.5 2.9 230 12
2004-05-27 10:35:31 51°19.824 2°55.771 233.4 2.8 234 12
2004-05-27 10:36:30 51°19.795 2°55.712 234.8 3 224 11.9
2004-05-27 10:37:30 51°19.763 2°55.646 232.8 4 230 11.9
2004-05-27 10:38:31 51°19.685 2°55.514 227.5 10.6 226 11.8
2004-05-27 10:39:31 51°19.584 2°55.232 256.7 12.9 252 11.6
2004-05-27 10:40:30 51°19.53 2°54.887 260.5 14.4 254 11.7
2004-05-27 10:41:30 51°19.47 2°54.512 260.5 14.7 257 11.8
2004-05-27 10:42:30 51°19.392 2°54.145 252 14.8 246 11.7
2004-05-27 10:43:30 51°19.295 2°53.788 250.4 14.7 246 11.7
2004-05-27 10:44:30 51°19.2 2°53.429 250.8 14.7 248 11.8
2004-05-27 10:45:30 51°19.104 2°53.07 250.7 14.7 246 11.8
2004-05-27 10:46:30 51°19.008 2°52.711 251.1 14.7 245 12
2004-05-27 10:47:30 51°18.914 2°52.35 252 14.7 244 12.4
2004-05-27 10:48:31 51°18.817 2°51.984 251.2 14.7 247 12.8
2004-05-27 10:49:30 51°18.723 2°51.632 251.6 14.6 249 13.3
2004-05-27 10:50:30 51°18.626 2°51.276 252 14.6 245 13.4
2004-05-27 10:51:30 51°18.551 2°50.929 271.5 11.2 267 13.4
2004-05-27 10:52:30 51°18.616 2°50.775 355 5.3 342 14.1
2004-05-27 10:53:30 51°18.673 2°50.8 48.4 2.8 36 14
2004-05-27 10:54:30 51°18.705 2°50.843 53.6 2.3 45 14.2
2004-05-27 10:55:30 51°18.728 2°50.889 60 2.4 54 14.2
2004-05-27 10:56:30 51°18.755 2°50.948 58.6 2.9 54 14.2
2004-05-27 10:57:31 51°18.785 2°51.012 58 3 52 14.2
2004-05-27 10:58:30 51°18.816 2°51.073 55.7 3 56 14.2
2004-05-27 10:59:30 51°18.849 2°51.133 55.2 2.9 51 14.3
2004-05-27 11:00:31 51°18.882 2°51.194 55.4 3 50 14.2
2004-05-27 11:01:30 51°18.913 2°51.251 55.4 2.9 45 14.2
2004-05-27 11:02:30 51°18.946 2°51.31 54.9 2.9 48 14.3
2004-05-27 11:03:30 51°18.978 2°51.369 55.3 3.1 50 14.4
2004-05-27 11:04:30 51°19.011 2°51.431 56.4 3 52 14
2004-05-27 11:05:29 51°19.041 2°51.491 55.5 2.8 52 14.6
2004-05-27 11:06:30 51°19.073 2°51.55 54.7 2.9 51 14.9
2004-05-27 11:07:30 51°19.105 2°51.609 55.1 2.9 47 14.9
2004-05-27 11:08:30 51°19.137 2°51.669 55 3 51 14.7
2004-05-27 11:09:30 51°19.17 2°51.729 54.7 2.9 53 14.8
2004-05-27 11:10:30 51°19.203 2°51.789 54 3 49 14.8
2004-05-27 11:11:30 51°19.236 2°51.846 55 2.9 43 14.9
2004-05-27 11:12:31 51°19.267 2°51.906 56.3 2.9 51 14.8
2004-05-27 11:13:30 51°19.297 2°51.965 56.4 2.9 54 14.8
2004-05-27 11:14:30 51°19.327 2°52.026 56.6 2.8 56 14.8
2004-05-27 11:15:30 51°19.357 2°52.083 53.9 2.8 48 15
2004-05-27 11:16:30 51°19.39 2°52.14 54.6 2.9 48 14.9
2004-05-27 11:17:30 51°19.422 2°52.2 56.1 3 54 14.9
2004-05-27 11:18:30 51°19.451 2°52.262 57.6 2.9 51 14.8
2004-05-27 11:19:31 51°19.481 2°52.325 55.4 3 51 14.8
2004-05-27 11:20:29 51°19.511 2°52.383 53.9 2.9 51 14.9
2004-05-27 11:21:30 51°19.543 2°52.443 53.9 3 52 14.9
2004-05-27 11:22:30 51°19.575 2°52.504 54.8 2.9 48 14.9
2004-05-27 11:23:30 51°19.605 2°52.566 55.6 2.9 55 14.9
2004-05-27 11:24:30 51°19.628 2°52.631 68.1 2.5 71 14.8
2004-05-27 11:25:30 51°19.629 2°52.665 81.8 0.7 121 14.8
2004-05-27 11:26:31 51°19.616 2°52.679 95.7 1.4 147 14.8
2004-05-27 11:27:31 51°19.556 2°52.746 158.5 5.2 169 14.5
2004-05-27 11:28:30 51°19.481 2°52.728 191.6 4.2 197 14.2
2004-05-27 11:29:31 51°19.42 2°52.679 209.3 4 213 14
2004-05-27 11:30:30 51°19.369 2°52.618 214.2 3.9 217 13.9
2004-05-27 11:31:30 51°19.317 2°52.555 213.8 3.9 217 13.9
2004-05-27 11:32:29 51°19.266 2°52.495 212.1 3.9 218 13.7
2004-05-27 11:33:30 51°19.213 2°52.434 210.1 3.8 215 13.7
2004-05-27 11:34:30 51°19.16 2°52.375 210.4 3.9 216 13.5
2004-05-27 11:35:30 51°19.107 2°52.315 210.4 3.9 211 13.4
2004-05-27 11:36:30 51°19.054 2°52.256 208.6 4 217 13.3
2004-05-27 11:37:30 51°19 2°52.198 208.8 4 218 13.1
2004-05-27 11:38:30 51°18.947 2°52.139 209.8 3.9 216 13.1
2004-05-27 11:39:30 51°18.894 2°52.078 210.6 3.9 213 13
2004-05-27 11:40:30 51°18.842 2°52.016 211.7 3.9 216 13
2004-05-27 11:41:30 51°18.79 2°51.953 212.3 4 219 12.9
2004-05-27 11:42:30 51°18.738 2°51.889 213.5 3.9 221 12.8
2004-05-27 11:43:31 51°18.687 2°51.823 214.5 3.9 220 12.7
2004-05-27 11:44:30 51°18.636 2°51.76 213.4 3.9 217 12.5
2004-05-27 11:45:30 51°18.585 2°51.696 213.4 3.8 213 12.5
2004-05-27 11:46:30 51°18.534 2°51.631 213.4 3.9 219 12.5
2004-05-27 11:47:30 51°18.482 2°51.567 213.3 3.9 220 12.4
2004-05-27 11:48:30 51°18.43 2°51.504 213.5 3.9 219 12.3
2004-05-27 11:49:30 51°18.379 2°51.443 213.3 3.6 215 12.3
2004-05-27 11:50:30 51°18.332 2°51.384 214.7 3.5 220 12.1
2004-05-27 11:51:30 51°18.287 2°51.327 214.4 3.5 216 12.1
2004-05-27 11:52:30 51°18.242 2°51.271 214.1 3.5 220 12.1
2004-05-27 11:53:30 51°18.198 2°51.215 213.7 3.4 219 12
2004-05-27 11:54:30 51°18.153 2°51.16 214.1 3.4 215 11.9
2004-05-27 11:55:30 51°18.107 2°51.104 212.9 3.4 218 11.8
2004-05-27 11:56:30 51°18.062 2°51.049 213.5 3.4 219 11.8
2004-05-27 11:57:30 51°18.018 2°50.993 213.8 3.5 221 11.5
2004-05-27 11:58:30 51°17.968 2°50.937 208.1 3.9 218 11.6
2004-05-27 11:59:30 51°17.916 2°50.886 201.9 3.5 210 11.6
2004-05-27 12:00:30 51°17.858 2°50.864 155.5 4 163 11.4
2004-05-27 12:01:31 51°17.786 2°50.976 122.8 9.7 128 10.5
2004-05-27 12:02:31 51°17.659 2°51.237 126.8 13.4 127 9
2004-05-27 12:03:30 51°17.574 2°51.542 105.9 12.8 107 9.2
2004-05-27 12:04:30 51°17.485 2°51.863 119.6 13.6 121 9.7
2004-05-27 12:05:31 51°17.35 2°52.16 126.4 13.5 125 9.7
2004-05-27 12:06:30 51°17.214 2°52.442 128.6 14 130 9.1
2004-05-27 12:07:29 51°17.074 2°52.715 126.7 13.4 129 9.3
2004-05-27 12:08:31 51°16.93 2°53.004 127.2 12.9 128 7.8
2004-05-27 12:09:30 51°16.785 2°53.271 129.6 14.6 130 10.1
2004-05-27 12:10:30 51°16.645 2°53.564 127 13.6 129 11.1
2004-05-27 12:11:30 51°16.514 2°53.844 116.7 11.4 116 11.1
2004-05-27 12:12:31 51°16.487 2°53.999 97.3 2.5 111 11.3
2004-05-27 12:13:30 51°16.471 2°53.997 81.6 1.2 207 11.4
2004-05-27 12:14:30 51°16.464 2°54.02 72.5 2.8 81 11.3
2004-05-27 12:15:30 51°16.47 2°54.095 80.5 2.7 90 11.3
2004-05-27 12:16:30 51°16.458 2°54.162 91.3 2.5 107 11.3
2004-05-27 12:17:31 51°16.442 2°54.224 90.1 2.4 108 11.2
2004-05-27 12:18:31 51°16.428 2°54.285 87.6 2.4 108 10.6
2004-05-27 12:19:30 51°16.419 2°54.351 84.1 2.8 99 18.5
2004-05-27 12:20:30 51°16.414 2°54.425 83.3 2.8 94 10.6
2004-05-27 12:21:30 51°16.408 2°54.5 83 2.9 98 10.4
2004-05-27 12:22:30 51°16.406 2°54.576 79.9 2.9 96 10.2
2004-05-27 12:23:30 51°16.407 2°54.651 78.4 2.8 86 9.8
2004-05-27 12:24:30 51°16.408 2°54.727 79.5 2.9 89 9.7
2004-05-27 12:25:31 51°16.407 2°54.804 80.4 2.9 91 9.8
2004-05-27 12:26:29 51°16.406 2°54.878 80.5 2.9 95 10.2
2004-05-27 12:27:32 51°16.406 2°54.958 81.2 2.9 92 10.1
2004-05-27 12:28:33 51°16.404 2°55.036 81.1 2.9 93 10.4
2004-05-27 12:29:34 51°16.404 2°55.114 80 2.9 88 10.4
2004-05-27 12:30:34 51°16.404 2°55.191 79.8 2.9 90 10.3
2004-05-27 12:31:33 51°16.404 2°55.268 81.1 3 94 10.1
2004-05-27 12:32:34 51°16.405 2°55.347 81.1 2.9 89 10.2
2004-05-27 12:33:34 51°16.407 2°55.422 78.1 2.9 86 10.1
2004-05-27 12:34:34 51°16.41 2°55.499 77.6 2.9 85 10
2004-05-27 12:35:34 51°16.415 2°55.576 77.8 2.9 82 9.9
2004-05-27 12:36:34 51°16.419 2°55.654 78.3 2.9 82 9.9
2004-05-27 12:37:34 51°16.424 2°55.731 78.7 2.9 84 9.8
2004-05-27 12:38:33 51°16.427 2°55.807 78.5 2.9 87 9.8
2004-05-27 12:39:33 51°16.432 2°55.884 77.7 3 88 9.7
2004-05-27 12:40:33 51°16.436 2°55.961 77.7 2.9 88 9.6
2004-05-27 12:41:34 51°16.441 2°56.038 77.9 2.9 85 9.6
2004-05-27 12:42:34 51°16.446 2°56.113 77.4 2.9 81 9.5
2004-05-27 12:43:34 51°16.45 2°56.191 78.8 3 88 9.6
2004-05-27 12:44:34 51°16.454 2°56.268 81 2.9 90 9.6
2004-05-27 12:45:34 51°16.428 2°56.331 124.1 2.7 146 9.5
2004-05-27 12:46:34 51°16.39 2°56.356 139.3 2.4 168 9.5
2004-05-27 12:47:34 51°16.353 2°56.364 145.8 2.2 178 9.4
2004-05-27 12:48:34 51°16.318 2°56.361 148.3 2 185 9.4
2004-05-27 12:49:34 51°16.263 2°56.359 174.1 4.5 188 9.3
2004-05-27 12:50:34 51°16.192 2°56.299 212 4.7 219 9.2
2004-05-27 12:51:34 51°16.138 2°56.231 213 3.9 221 8.9
2004-05-27 12:52:33 51°16.092 2°56.171 215.4 3.5 220 9
2004-05-27 12:53:34 51°16.047 2°56.109 218.3 3.4 221 8.9
2004-05-27 12:54:34 51°16.006 2°56.047 221.9 3.4 225 8.9
2004-05-27 12:55:34 51°15.969 2°55.98 236.3 3.3 235 9
2004-05-27 12:56:34 51°15.935 2°55.899 245.8 3.9 237 8.9
2004-05-27 12:57:34 51°15.901 2°55.807 247.5 4.1 238 8.8
2004-05-27 12:58:34 51°15.866 2°55.71 246.5 4.3 239 8.9
2004-05-27 12:59:34 51°15.829 2°55.612 245.2 4.3 240 9
2004-05-27 13:00:34 51°15.79 2°55.515 242.8 4.4 235 8.8
2004-05-27 13:01:34 51°15.75 2°55.418 240.8 4.4 237 8.9
2004-05-27 13:02:34 51°15.711 2°55.322 243.8 4.4 239 8.8
2004-05-27 13:03:34 51°15.675 2°55.221 252.7 4.3 245 8.9
2004-05-27 13:04:34 51°15.647 2°55.117 259.4 4.2 248 8.9
2004-05-27 13:05:33 51°15.621 2°55.016 260.3 4.3 247 9.2
2004-05-27 13:06:33 51°15.594 2°54.913 258.1 4.2 251 9.2
2004-05-27 13:07:32 51°15.566 2°54.813 257.6 4.2 245 9.2
2004-05-27 13:08:34 51°15.536 2°54.707 256.6 4.2 246 9.2
2004-05-27 13:09:34 51°15.507 2°54.604 255.5 4.3 243 9.1
2004-05-27 13:10:34 51°15.477 2°54.503 255.4 4.2 242 9.1
2004-05-27 13:11:32 51°15.45 2°54.403 261.2 4.2 250 9.2
2004-05-27 13:12:34 51°15.432 2°54.296 274.7 4.1 256 8.6
2004-05-27 13:13:33 51°15.425 2°54.195 286.8 3.8 268 9.4
2004-05-27 13:14:34 51°15.426 2°54.095 297.1 3.6 274 9.6
2004-05-27 13:15:34 51°15.435 2°54.005 307.3 3.4 283 9.7
2004-05-27 13:16:34 51°15.449 2°53.921 318.4 3 292 9.7
2004-05-27 13:17:34 51°15.475 2°53.853 341.2 3.2 312 10.1
2004-05-27 13:18:34 51°15.516 2°53.8 352.6 3.1 327 10.1
2004-05-27 13:19:34 51°15.553 2°53.766 5.4 2 326 10.3
2004-05-27 13:20:34 51°15.573 2°53.74 10.8 1.4 313 10.6
2004-05-27 13:21:33 51°15.583 2°53.715 11.4 1.2 297 10.5
2004-05-27 13:22:34 51°15.62 2°53.761 67.2 5.6 75 10.4
2004-05-27 13:23:34 51°15.51 2°53.909 156.6 12.6 160 10
2004-05-27 13:24:39 51°15.274 2°54.022 160.9 13.9 163 8.9
2004-05-27 13:25:38 51°15.055 2°54.128 156.2 13.9 157 8.4
2004-05-27 13:26:38 51°14.851 2°54.283 147.1 13.4 148 8.8
2004-05-27 13:27:38 51°14.667 2°54.486 138.6 13.3 139 9.5
2004-05-27 13:28:39 51°14.51 2°54.733 131.5 12.9 131 9.9
2004-05-27 13:29:38 51°14.385 2°54.999 127.8 12.8 126 10.1
2004-05-27 13:30:39 51°14.28 2°55.252 130.5 9.5 129 10.8
2004-05-27 13:31:38 51°14.18 2°55.389 147.8 7.4 145 11
2004-05-27 13:32:37 51°14.081 2°55.486 156.1 7 152 10.9
2004-05-27 13:33:39 51°13.967 2°55.561 160.6 8.3 158 10.1
2004-05-27 13:34:38 51°13.825 2°55.649 163.9 9.3 160 9.3
2004-05-27 13:35:39 51°13.711 2°55.773 135 7.7 130 13
2004-05-27 13:36:38 51°13.646 2°55.917 126.6 6.2 123 9.2
2004-05-27 13:37:38 51°13.609 2°56.038 112.9 4.2 109 8.7
2004-05-27 13:38:38 51°13.597 2°56.096 120.4 0.8 117 6.6
2004-05-27 13:39:39 51°13.596 2°56.094 130 0.3 106 -999
2004-05-27 13:40:37 51°13.597 2°56.098 125 0.1 300 6.3
2004-05-27 13:41:37 51°13.596 2°56.095 132 0.3 103 6.7